Time,TemperatureF,DewpointF,PressureIn,WindDirection,WindDirectionDegrees,WindSpeedMPH,WindSpeedGustMPH,Humidity,HourlyPrecipIn,Conditions,Clouds,dailyrainin,SolarRadiationWatts/m^2,SoftwareType,DateUTC
2013-03-03 00:01:00,44.0,40.0,-100.00,SW,218,6.0,15.0,85,0.00,,,0.10,1.000000,,2013-03-03 08:01:00,
2013-03-03 00:32:00,42.0,39.0,-100.00,SW,215,6.0,15.0,88,0.00,,,0.10,1.000000,,2013-03-03 08:32:00,
2013-03-03 00:42:00,42.0,39.0,-100.00,SW,215,6.0,15.0,88,0.00,,,0.10,1.000000,,2013-03-03 08:42:00,
2013-03-03 00:54:00,42.0,39.0,-100.00,SW,215,6.0,15.0,88,0.00,,,0.10,1.000000,,2013-03-03 08:54:00,
2013-03-03 01:01:00,42.0,39.0,-100.00,SW,215,6.0,15.0,88,0.00,,,0.10,1.000000,,2013-03-03 09:01:00,
2013-03-03 01:32:00,42.0,39.0,-100.00,SW,226,5.0,11.0,90,0.01,,,0.11,1.000000,,2013-03-03 09:32:00,
2013-03-03 01:42:00,42.0,39.0,-100.00,SW,226,5.0,11.0,90,0.01,,,0.11,1.000000,,2013-03-03 09:42:00,
2013-03-03 01:52:00,42.0,39.0,-100.00,SW,226,5.0,11.0,90,0.01,,,0.11,1.000000,,2013-03-03 09:52:00,
2013-03-03 02:01:00,42.0,39.0,-100.00,SW,226,5.0,11.0,90,0.01,,,0.11,1.000000,,2013-03-03 10:01:00,
2013-03-03 02:32:00,40.0,37.0,-100.00,SW,224,5.0,12.0,88,0.00,,,0.11,1.000000,,2013-03-03 10:32:00,
2013-03-03 02:42:00,40.0,37.0,-100.00,SW,224,5.0,12.0,88,0.00,,,0.11,1.000000,,2013-03-03 10:42:00,
2013-03-03 02:52:00,40.0,37.0,-100.00,SW,224,5.0,12.0,88,0.00,,,0.11,1.000000,,2013-03-03 10:52:00,
2013-03-03 03:01:00,40.0,37.0,-100.00,SW,224,5.0,12.0,88,0.00,,,0.11,1.000000,,2013-03-03 11:01:00,
2013-03-03 03:32:00,40.0,36.0,-100.00,SW,220,6.0,15.0,85,0.00,,,0.11,1.000000,,2013-03-03 11:32:00,
2013-03-03 03:42:00,40.0,36.0,-100.00,SW,220,6.0,15.0,85,0.00,,,0.11,1.000000,,2013-03-03 11:42:00,
2013-03-03 03:52:00,40.0,36.0,-100.00,SW,220,6.0,15.0,85,0.00,,,0.11,1.000000,,2013-03-03 11:52:00,
2013-03-03 04:01:00,40.0,36.0,-100.00,SW,220,6.0,15.0,85,0.00,,,0.11,1.000000,,2013-03-03 12:01:00,
2013-03-03 04:32:00,39.0,34.0,-100.00,SSW,207,5.0,11.0,82,0.00,,,0.11,1.000000,,2013-03-03 12:32:00,
2013-03-03 04:43:00,39.0,34.0,-100.00,SSW,207,5.0,11.0,82,0.00,,,0.11,1.000000,,2013-03-03 12:43:00,
2013-03-03 04:52:00,39.0,34.0,-100.00,SSW,207,5.0,11.0,82,0.00,,,0.11,1.000000,,2013-03-03 12:52:00,
2013-03-03 05:01:00,39.0,34.0,-100.00,SSW,207,5.0,11.0,82,0.00,,,0.11,1.000000,,2013-03-03 13:01:00,
2013-03-03 05:32:00,38.0,35.0,-100.00,SSW,205,4.0,10.0,90,0.00,,,0.11,1.000000,,2013-03-03 13:32:00,
2013-03-03 05:42:00,38.0,35.0,-100.00,SSW,205,4.0,10.0,90,0.00,,,0.11,1.000000,,2013-03-03 13:42:00,
2013-03-03 05:52:00,38.0,35.0,-100.00,SSW,205,4.0,10.0,90,0.00,,,0.11,1.000000,,2013-03-03 13:52:00,
2013-03-03 06:01:00,38.0,35.0,-100.00,SSW,205,4.0,10.0,90,0.00,,,0.11,1.000000,,2013-03-03 14:01:00,
2013-03-03 06:32:00,39.0,34.0,-100.00,SSW,210,4.0,9.0,82,0.00,,,0.11,1.000000,,2013-03-03 14:32:00,
2013-03-03 06:42:00,39.0,34.0,-100.00,SSW,210,4.0,9.0,82,0.00,,,0.11,1.000000,,2013-03-03 14:42:00,
2013-03-03 06:52:00,39.0,34.0,-100.00,SSW,210,4.0,9.0,82,0.00,,,0.11,1.000000,,2013-03-03 14:52:00,
2013-03-03 07:01:00,39.0,34.0,-100.00,SSW,210,4.0,9.0,82,0.00,,,0.11,1.000000,,2013-03-03 15:01:00,
2013-03-03 07:32:00,39.0,34.0,-100.00,SW,214,5.0,13.0,82,0.00,,,0.11,5.000000,,2013-03-03 15:32:00,
2013-03-03 07:42:00,39.0,34.0,-100.00,SW,214,5.0,13.0,82,0.00,,,0.11,5.000000,,2013-03-03 15:42:00,
2013-03-03 07:52:00,39.0,34.0,-100.00,SW,214,5.0,13.0,82,0.00,,,0.11,5.000000,,2013-03-03 15:52:00,
2013-03-03 08:01:00,39.0,34.0,-100.00,SW,214,5.0,13.0,82,0.00,,,0.11,5.000000,,2013-03-03 16:01:00,
2013-03-03 08:32:00,40.0,33.0,-100.00,SW,216,7.0,13.0,77,0.00,,,0.11,36.000000,,2013-03-03 16:32:00,
2013-03-03 08:42:00,40.0,33.0,-100.00,SW,216,7.0,13.0,77,0.00,,,0.11,36.000000,,2013-03-03 16:42:00,
2013-03-03 08:52:00,40.0,33.0,-100.00,SW,216,7.0,13.0,77,0.00,,,0.11,36.000000,,2013-03-03 16:52:00,
2013-03-03 09:01:00,40.0,33.0,-100.00,SW,216,7.0,13.0,77,0.00,,,0.11,36.000000,,2013-03-03 17:01:00,
2013-03-03 09:32:00,43.0,34.0,-100.00,WSW,245,5.0,11.0,69,0.00,,,0.11,160.000000,,2013-03-03 17:32:00,
2013-03-03 09:42:00,43.0,34.0,-100.00,WSW,245,5.0,11.0,69,0.00,,,0.11,160.000000,,2013-03-03 17:42:00,
2013-03-03 09:52:00,43.0,34.0,-100.00,WSW,245,5.0,11.0,69,0.00,,,0.11,160.000000,,2013-03-03 17:52:00,
2013-03-03 10:01:00,43.0,34.0,-100.00,WSW,245,5.0,11.0,69,0.00,,,0.11,160.000000,,2013-03-03 18:01:00,
2013-03-03 10:32:00,46.0,32.0,-100.00,SW,227,6.0,13.0,59,0.00,,,0.11,410.000000,,2013-03-03 18:32:00,
2013-03-03 10:42:00,46.0,32.0,-100.00,SW,227,6.0,13.0,59,0.00,,,0.11,410.000000,,2013-03-03 18:42:00,
2013-03-03 10:52:00,46.0,32.0,-100.00,SW,227,6.0,13.0,59,0.00,,,0.11,410.000000,,2013-03-03 18:52:00,
2013-03-03 11:01:00,46.0,32.0,-100.00,SW,227,6.0,13.0,59,0.00,,,0.11,410.000000,,2013-03-03 19:01:00,
2013-03-03 11:32:00,47.0,34.0,-100.00,WSW,251,6.0,13.0,60,0.00,,,0.11,535.000000,,2013-03-03 19:32:00,
2013-03-03 11:42:00,47.0,34.0,-100.00,WSW,251,6.0,13.0,60,0.00,,,0.11,535.000000,,2013-03-03 19:42:00,
2013-03-03 11:52:00,47.0,34.0,-100.00,WSW,251,6.0,13.0,60,0.00,,,0.11,535.000000,,2013-03-03 19:52:00,
2013-03-03 12:01:00,47.0,34.0,-100.00,WSW,251,6.0,13.0,60,0.00,,,0.11,535.000000,,2013-03-03 20:01:00,
2013-03-03 12:32:00,49.0,35.0,-100.00,West,277,8.0,15.0,59,0.00,,,0.11,629.000000,,2013-03-03 20:32:00,
2013-03-03 12:42:00,49.0,35.0,-100.00,West,277,8.0,15.0,59,0.00,,,0.11,629.000000,,2013-03-03 20:42:00,
2013-03-03 12:52:00,49.0,35.0,-100.00,West,277,8.0,15.0,59,0.00,,,0.11,629.000000,,2013-03-03 20:52:00,
2013-03-03 13:01:00,49.0,35.0,-100.00,West,277,8.0,15.0,59,0.00,,,0.11,629.000000,,2013-03-03 21:01:00,
2013-03-03 13:32:00,48.0,35.0,-100.00,WSW,239,7.0,14.0,61,0.00,,,0.11,471.000000,,2013-03-03 21:32:00,
2013-03-03 13:42:00,48.0,35.0,-100.00,WSW,239,7.0,14.0,61,0.00,,,0.11,471.000000,,2013-03-03 21:42:00,
2013-03-03 13:52:00,48.0,35.0,-100.00,WSW,239,7.0,14.0,61,0.00,,,0.11,471.000000,,2013-03-03 21:52:00,
2013-03-03 14:01:00,48.0,35.0,-100.00,WSW,239,7.0,14.0,61,0.00,,,0.11,471.000000,,2013-03-03 22:01:00,
2013-03-03 14:32:00,50.0,34.0,-100.00,SW,234,7.0,14.0,54,0.00,,,0.11,428.000000,,2013-03-03 22:32:00,
2013-03-03 14:42:00,50.0,34.0,-100.00,SW,234,7.0,14.0,54,0.00,,,0.11,428.000000,,2013-03-03 22:42:00,
2013-03-03 14:52:00,50.0,34.0,-100.00,SW,234,7.0,14.0,54,0.00,,,0.11,428.000000,,2013-03-03 22:52:00,
2013-03-03 15:01:00,50.0,34.0,-100.00,SW,234,7.0,14.0,54,0.00,,,0.11,428.000000,,2013-03-03 23:01:00,
2013-03-03 15:32:00,52.0,33.0,-100.00,SW,229,6.0,12.0,48,0.00,,,0.10,441.000000,,2013-03-03 23:32:00,
2013-03-03 15:42:00,52.0,33.0,-100.00,SW,229,6.0,12.0,48,0.00,,,0.10,441.000000,,2013-03-03 23:42:00,
2013-03-03 15:52:00,52.0,33.0,-100.00,SW,229,6.0,12.0,48,0.00,,,0.10,441.000000,,2013-03-03 23:52:00,
2013-03-03 16:01:00,52.0,33.0,-100.00,SW,229,6.0,12.0,48,0.00,,,0.10,441.000000,,2013-03-04 00:01:00,
2013-03-03 16:32:00,49.0,32.0,-100.00,SW,233,4.0,10.0,51,0.00,,,0.10,258.000000,,2013-03-04 00:32:00,
2013-03-03 16:42:00,49.0,32.0,-100.00,SW,233,4.0,10.0,51,0.00,,,0.10,258.000000,,2013-03-04 00:42:00,
2013-03-03 16:52:00,49.0,32.0,-100.00,SW,233,4.0,10.0,51,0.00,,,0.10,258.000000,,2013-03-04 00:52:00,
2013-03-03 17:01:00,49.0,32.0,-100.00,SW,233,4.0,10.0,51,0.00,,,0.10,258.000000,,2013-03-04 01:01:00,
2013-03-03 17:32:00,46.0,37.0,-100.00,SSW,195,3.0,8.0,70,0.00,,,0.10,81.000000,,2013-03-04 01:32:00,
2013-03-03 17:42:00,46.0,37.0,-100.00,SSW,195,3.0,8.0,70,0.00,,,0.10,81.000000,,2013-03-04 01:42:00,
2013-03-03 17:52:00,46.0,37.0,-100.00,SSW,195,3.0,8.0,70,0.00,,,0.10,81.000000,,2013-03-04 01:52:00,
2013-03-03 18:01:00,46.0,37.0,-100.00,SSW,195,3.0,8.0,70,0.00,,,0.10,81.000000,,2013-03-04 02:01:00,
2013-03-03 18:32:00,41.0,37.0,-100.00,South,188,2.0,7.0,84,0.00,,,0.10,26.000000,,2013-03-04 02:32:00,
2013-03-03 18:42:00,41.0,37.0,-100.00,South,188,2.0,7.0,84,0.00,,,0.10,26.000000,,2013-03-04 02:42:00,
2013-03-03 18:52:00,41.0,37.0,-100.00,South,188,2.0,7.0,84,0.00,,,0.10,26.000000,,2013-03-04 02:52:00,
2013-03-03 19:01:00,41.0,37.0,-100.00,South,188,2.0,7.0,84,0.00,,,0.10,26.000000,,2013-03-04 03:01:00,
2013-03-03 19:32:00,38.0,36.0,-100.00,SE,146,1.0,4.0,91,0.00,,,0.05,1.000000,,2013-03-04 03:32:00,
2013-03-03 19:42:00,38.0,36.0,-100.00,SE,146,1.0,4.0,91,0.00,,,0.05,1.000000,,2013-03-04 03:42:00,
2013-03-03 19:52:00,38.0,36.0,-100.00,SE,146,1.0,4.0,91,0.00,,,0.05,1.000000,,2013-03-04 03:52:00,
2013-03-03 20:01:00,38.0,36.0,-100.00,SE,146,1.0,4.0,91,0.00,,,0.05,1.000000,,2013-03-04 04:01:00,
2013-03-03 20:32:00,36.0,34.0,-100.00,ESE,103,2.0,4.0,93,0.00,,,0.01,1.000000,,2013-03-04 04:32:00,
2013-03-03 20:42:00,36.0,34.0,-100.00,ESE,103,2.0,4.0,93,0.00,,,0.01,1.000000,,2013-03-04 04:42:00,
2013-03-03 20:52:00,36.0,34.0,-100.00,ESE,103,2.0,4.0,93,0.00,,,0.01,1.000000,,2013-03-04 04:52:00,
2013-03-03 21:01:00,36.0,34.0,-100.00,ESE,103,2.0,4.0,93,0.00,,,0.01,1.000000,,2013-03-04 05:01:00,
2013-03-03 21:32:00,35.0,34.0,-100.00,East,81,2.0,4.0,96,0.00,,,0.01,1.000000,,2013-03-04 05:32:00,
2013-03-03 21:42:00,35.0,34.0,-100.00,East,81,2.0,4.0,96,0.00,,,0.01,1.000000,,2013-03-04 05:42:00,
2013-03-03 21:52:00,35.0,34.0,-100.00,East,81,2.0,4.0,96,0.00,,,0.01,1.000000,,2013-03-04 05:52:00,
2013-03-03 22:01:00,35.0,34.0,-100.00,East,81,2.0,4.0,96,0.00,,,0.01,1.000000,,2013-03-04 06:01:00,
2013-03-03 22:32:00,34.0,33.0,-100.00,East,82,2.0,4.0,96,0.00,,,0.01,1.000000,,2013-03-04 06:32:00,
2013-03-03 22:42:00,34.0,33.0,-100.00,East,82,2.0,4.0,96,0.00,,,0.01,1.000000,,2013-03-04 06:42:00,
2013-03-03 22:52:00,34.0,33.0,-100.00,East,82,2.0,4.0,96,0.00,,,0.01,1.000000,,2013-03-04 06:52:00,
2013-03-03 23:01:00,34.0,33.0,-100.00,East,82,2.0,4.0,96,0.00,,,0.01,1.000000,,2013-03-04 07:01:00,
2013-03-03 23:32:00,32.0,31.0,-100.00,East,88,1.0,2.0,96,0.00,,,0.01,1.000000,,2013-03-04 07:32:00,
2013-03-03 23:42:00,32.0,31.0,-100.00,East,88,1.0,2.0,96,0.00,,,0.01,1.000000,,2013-03-04 07:42:00,
2013-03-03 23:52:00,32.0,31.0,-100.00,East,88,1.0,2.0,96,0.00,,,0.01,1.000000,,2013-03-04 07:52:00,